Latest Coastal Weather Observations for Samuel Hill

IDQ60701

Issued at 11:52 pm EST Thursday 2 February 2023 (issued every 10 minutes, with the page automatically refreshed every 10 minutes)

About coastal observations | Map of coastal stations | Coastal observations for QLD | Marine services | Other Formats
Station Details ID: 033308 Name: SAMUEL HILL AERO Lat: -22.74 Lon: 150.66 Height: 31.0 m
Data from the previous 72 hours. | See also: Recent months at Samuel Hill
Date/Time
EST
Wind Sea
Height
m
Swell Vis
km
Cloud Weather Temp
°C
Press
MSL
hPa
Rain since
9am
mm
Dir  Spd
kts
Gust
kts
Height
m
Period
s
Dir
02/11:30pm CALM 0 0 - - - - 10 - - 24.6 999.6 21.8
02/11:00pm CALM 0 0 - - - - 10 - - 24.5 1000.0 21.8
02/10:30pm NE 2 4 - - - - 10 - - 24.8 1000.1 21.8
02/10:00pm CALM 0 0 - - - - 10 Partly cloudy - 24.9 1000.3 21.8
02/09:30pm CALM 0 0 - - - - 10 Partly cloudy - 24.9 1000.1 21.8
02/09:00pm CALM 0 0 - - - - 10 - - 25.0 999.9 21.8
02/08:30pm CALM 0 0 - - - - 10 - - 25.0 999.5 21.8
02/08:00pm CALM 0 0 - - - - 10 - - 25.1 999.5 21.8
02/07:30pm NE 3 5 - - - - 10 Partly cloudy - 25.1 999.0 21.8
02/07:00pm NE 5 8 - - - - 10 Partly cloudy - 25.3 998.0 21.8
02/06:45pm NNE 4 6 - - - - 10 Partly cloudy - 25.4 998.1 21.8
02/06:30pm WNW 4 5 - - - - 10 Partly cloudy - 25.5 998.2 21.8
02/06:22pm SW 3 6 - - - - 10 Partly cloudy - 25.2 997.9 21.6
02/06:00pm NW 7 12 - - - - 2 Cloudy Thunderstorm 25.0 997.9 19.4
02/05:39pm SSE 8 15 - - - - 7 Partly cloudy - 26.2 997.1 2.0
02/05:37pm SE 8 15 - - - - 10 Partly cloudy - 26.3 996.9 1.0
02/05:32pm ESE 11 17 - - - - 10 Partly cloudy - 26.7 996.6 0.4
02/05:30pm ESE 12 18 - - - - 10 Partly cloudy - 27.1 996.5 0.0
02/05:05pm NW 8 11 - - - - 10 - - 31.8 995.5 0.0
02/05:00pm NW 8 13 - - - - 10 - - 32.3 995.4 0.0
02/04:30pm N 9 12 - - - - 10 Partly cloudy - 32.8 995.3 0.0
02/04:05pm NNW 8 12 - - - - 10 Partly cloudy - 33.7 995.6 0.0
02/04:00pm NNW 9 12 - - - - 10 Partly cloudy - 33.0 995.7 0.0
02/03:43pm N 10 15 - - - - 10 Partly cloudy - 33.6 995.7 0.0
02/03:30pm N 11 14 - - - - 10 Partly cloudy - 32.3 995.7 0.0
02/03:00pm NNE 7 10 - - - - 10 Mostly cloudy - 32.9 996.2 0.0
02/02:30pm NE 7 9 - - - - 10 Partly cloudy - 32.5 996.7 0.0
02/02:00pm ENE 5 7 - - - - 10 Partly cloudy - 32.2 997.1 0.0
02/01:30pm NW 4 8 - - - - 10 Partly cloudy - 33.4 997.5 0.0
02/01:00pm SW 6 10 - - - - 10 Partly cloudy - 33.4 997.9 0.0
02/12:30pm SW 6 11 - - - - 10 Partly cloudy - 33.3 998.4 0.0
02/12:00pm SW 5 9 - - - - 10 Partly cloudy - 33.2 998.8 0.0
02/11:30am SSW 7 11 - - - - 10 Partly cloudy - 32.6 999.3 0.0
02/11:00am SSW 7 10 - - - - 10 Partly cloudy - 31.9 999.6 0.0
02/10:30am SW 7 11 - - - - 10 Partly cloudy - 31.4 1000.0 0.0
02/10:00am SW 7 10 - - - - 10 Partly cloudy - 30.8 1000.1 0.0
02/09:30am SW 6 9 - - - - 10 Partly cloudy - 30.0 1000.2 0.0
02/09:00am WSW 5 9 - - - - 10 Mostly clear Rain 29.9 1000.2 25.4
02/08:30am WSW 6 8 - - - - 10 - - 29.0 1000.4 25.2
02/08:00am WSW 4 6 - - - - 10 Partly cloudy - 28.5 1000.6 25.2
02/07:30am NW 1 4 - - - - 10 - - 27.0 1000.3 25.2
02/07:00am W 3 5 - - - - 10 Partly cloudy - 25.9 1000.3 25.2
02/06:30am W 4 5 - - - - 10 - - 25.0 1000.4 25.2
02/06:12am SW 4 5 - - - - 10 Partly cloudy - 24.4 1000.3 25.2
02/06:00am SW 3 4 - - - - 10 Partly cloudy - 24.2 1000.2 25.2
02/05:30am SSW 1 4 - - - - 10 Cloudy - 24.1 1000.0 25.2
02/05:00am CALM 0 0 - - - - 10 Cloudy - 24.1 999.6 25.2
02/04:30am CALM 0 0 - - - - 10 Partly cloudy - 23.9 999.4 25.2
02/04:00am CALM 0 0 - - - - 10 Partly cloudy - 23.9 999.1 25.2
02/03:45am CALM 0 0 - - - - 10 Cloudy - 23.9 999.0 25.2
02/03:30am CALM 0 3 - - - - 1 Cloudy - 23.9 999.0 25.2
02/03:23am N 2 4 - - - - 5 Cloudy - 23.9 999.0 25.2
02/03:00am N 3 4 - - - - 10 Cloudy - 23.9 999.2 25.2
02/02:30am CALM 0 0 - - - - 10 Partly cloudy - 23.9 999.3 25.2
02/02:25am CALM 0 0 - - - - 10 Partly cloudy - 23.8 999.3 25.2
02/02:00am CALM 0 0 - - - - 10 Partly cloudy - 23.9 999.4 25.2
02/01:30am NNW 3 3 - - - - 10 - - 23.8 999.9 25.2
02/01:00am NNW 3 4 - - - - 10 Partly cloudy - 24.0 1000.1 25.2
02/12:30am NNW 1 4 - - - - 10 Partly cloudy - 24.1 1000.5 25.2
02/12:00am WNW 4 6 - - - - 10 Mostly cloudy Rain 24.2 1001.0 25.2
 
Date/Time
EST
Wind Sea
Height
m
Swell Vis
km
Cloud Weather Temp
°C
Press
MSL
hPa
Rain since
9am
mm
Dir  Spd
kts
Gust
kts
Height
m
Period
s
Dir
01/11:30pm NNW 5 8 - - - - 10 Partly cloudy - 24.3 1001.5 24.6
01/11:00pm CALM 0 0 - - - - 10 Partly cloudy - 24.3 1001.6 23.8
01/10:58pm CALM 0 0 - - - - 10 Partly cloudy - 24.3 1001.7 23.8
01/10:46pm ENE 2 3 - - - - 6 Partly cloudy - 24.3 1002.0 23.2
01/10:30pm NNW 5 7 - - - - 2 Partly cloudy - 24.4 1002.1 19.6
01/10:22pm NW 5 9 - - - - 7 Partly cloudy - 24.8 1002.1 13.8
01/10:20pm WNW 6 9 - - - - 9 Partly cloudy - 24.8 1002.0 12.6
01/10:14pm W 6 9 - - - - 10 Partly cloudy - 25.0 1002.1 11.8
01/10:12pm WSW 6 9 - - - - 9 Partly cloudy - 25.1 1002.1 11.6
01/10:00pm WSW 5 8 - - - - 2 Partly cloudy - 25.1 1002.0 10.4
01/09:54pm W 6 12 - - - - 1 Partly cloudy - 25.3 1002.0 8.4
01/09:41pm WNW 7 13 - - - - 7 Partly cloudy - 26.6 1002.2 1.2
01/09:30pm NW 5 8 - - - - 10 Partly cloudy - 27.3 1002.1 0.2
01/09:26pm NW 5 8 - - - - 10 Partly cloudy - 27.3 1002.0 0.2
01/09:01pm NNW 5 7 - - - - 10 Partly cloudy - 27.2 1001.7 0.2
01/09:00pm NNW 5 8 - - - - 10 Cloudy - 27.3 1001.7 0.2
01/08:30pm NW 7 11 - - - - 10 Partly cloudy - 27.3 1001.6 0.2
01/08:00pm NNW 6 10 - - - - 10 - - 27.2 1000.9 0.2
01/07:30pm NW 6 10 - - - - 10 Partly cloudy - 27.3 1001.0 0.2
01/07:00pm NNW 6 9 - - - - 10 - - 27.4 1000.7 0.2
01/06:30pm NNW 7 14 - - - - 10 - - 27.6 1000.3 0.2
01/06:00pm NNW 7 11 - - - - 10 Partly cloudy - 27.9 1000.0 0.2
01/05:30pm NNW 9 12 - - - - 10 Partly cloudy - 28.2 999.6 0.2
01/05:00pm NNW 9 15 - - - - 10 Partly cloudy - 29.3 999.1 0.2
01/04:30pm NNW 10 12 - - - - 10 Partly cloudy - 29.8 999.2 0.2
01/04:00pm NW 12 17 - - - - 10 Partly cloudy - 29.4 999.2 0.2
01/03:30pm NW 11 16 - - - - 10 Partly cloudy - 30.0 999.2 0.2
01/03:00pm NNW 10 14 - - - - 10 Mostly cloudy - 31.2 999.6 0.2
01/02:30pm N 10 15 - - - - 10 Partly cloudy - 31.3 1000.0 0.2
01/02:00pm NNW 11 16 - - - - 10 Partly cloudy - 30.6 1000.5 0.2
01/01:30pm NNW 7 11 - - - - 10 Partly cloudy - 29.5 1001.2 0.2
01/01:00pm NNW 10 17 - - - - 10 Partly cloudy - 29.8 1001.5 0.2
01/12:30pm NNW 12 19 - - - - 10 Partly cloudy - 29.4 1001.4 0.2
01/12:00pm NW 13 22 - - - - 10 Cloudy - 30.2 1001.9 0.2
01/11:30am NNW 13 21 - - - - 10 Partly cloudy - 29.3 1002.2 0.2
01/11:00am NW 14 19 - - - - 10 Partly cloudy - 28.7 1002.6 0.2
01/10:33am NNW 15 25 - - - - 10 Partly cloudy - 29.0 1003.0 0.2
01/10:30am NNW 12 25 - - - - 10 Partly cloudy - 29.2 1003.1 0.2
01/10:00am NNW 11 19 - - - - 10 Partly cloudy - 28.5 1003.3 0.0
01/09:30am NNW 9 13 - - - - 10 Partly cloudy - 27.5 1003.5 0.0
01/09:11am NNW 8 15 - - - - 10 Partly cloudy - 27.4 1003.5 0.0
01/09:00am NNW 9 15 - - - - 10 Cloudy - 27.4 1003.4 56.2
01/08:30am NNW 6 9 - - - - 10 Partly cloudy - 26.4 1003.3 56.2
01/08:00am NW 5 9 - - - - 10 Partly cloudy - 25.7 1003.3 56.2
01/07:45am NNW 4 10 - - - - 10 Partly cloudy - 25.1 1003.3 56.2
01/07:30am NNW 4 7 - - - - 10 Partly cloudy - 24.9 1003.3 56.2
01/07:00am N 4 5 - - - - 10 Partly cloudy - 24.5 1003.6 55.6
01/06:41am NNW 4 6 - - - - 10 Partly cloudy - 24.6 1003.6 55.4
01/06:30am NNW 6 9 - - - - 10 Partly cloudy - 24.6 1003.6 55.0
01/06:03am NNE 2 7 - - - - 10 Partly cloudy - 25.0 1003.5 53.8
01/06:00am NNE 1 3 - - - - 10 Cloudy Rain 25.0 1003.5 53.6
01/05:47am NNE 1 3 - - - - 7 Partly cloudy - 24.9 1003.4 53.0
01/05:30am NNE 5 6 - - - - 10 Partly cloudy - 24.8 1003.2 52.0
01/05:22am N 3 5 - - - - 10 Partly cloudy - 24.7 1003.1 51.8
01/05:18am NNW 1 4 - - - - 8 Partly cloudy - 24.7 1003.2 51.6
01/05:00am NNW 3 5 - - - - 8 Partly cloudy - 24.7 1003.2 50.6
01/04:53am NNW 4 5 - - - - 9 Partly cloudy - 24.6 1003.0 50.0
01/04:41am NNW 6 11 - - - - 3 Partly cloudy - 24.5 1003.0 49.0
01/04:31am NNW 7 11 - - - - 2 Partly cloudy - 24.6 1002.9 45.8
01/04:30am NNW 6 11 - - - - 2 Partly cloudy - 24.6 1003.0 44.6
01/04:18am N 8 11 - - - - 2 Partly cloudy - 24.5 1002.6 39.6
01/04:00am NNW 10 17 - - - - 2 Partly cloudy - 24.5 1002.7 24.8
01/03:53am NNW 8 15 - - - - 4 Partly cloudy - 24.6 1002.8 17.6
01/03:30am NNW 7 10 - - - - 3 Partly cloudy - 24.8 1003.0 5.6
01/03:29am NNW 6 9 - - - - 4 Partly cloudy - 24.8 1003.0 4.0
01/03:00am N 4 5 - - - - 10 Cloudy Rain 25.0 1002.5 0.2
01/02:30am NNW 6 9 - - - - 10 Partly cloudy - 26.1 1002.8 0.0
01/02:00am N 4 7 - - - - 10 Partly cloudy - 26.2 1003.0 0.0
01/01:30am N 6 9 - - - - 10 Partly cloudy - 26.2 1003.1 0.0
01/01:00am N 7 13 - - - - 10 Partly cloudy - 26.2 1003.4 0.0
01/12:30am N 6 10 - - - - 10 Partly cloudy - 26.1 1004.0 0.0
01/12:00am N 6 10 - - - - 10 Cloudy - 26.3 1004.5 0.0
 
Date/Time
EST
Wind Sea
Height
m
Swell Vis
km
Cloud Weather Temp
°C
Press
MSL
hPa
Rain since
9am
mm
Dir  Spd
kts
Gust
kts
Height
m
Period
s
Dir
31/11:30pm N 7 10 - - - - 10 Partly cloudy - 26.5 1004.8 0.0
31/11:00pm N 7 10 - - - - 10 Partly cloudy - 26.3 1005.1 0.0
31/10:30pm N 7 10 - - - - 10 Partly cloudy - 26.1 1005.4 0.0
31/10:00pm NNE 4 5 - - - - 10 Partly cloudy - 25.3 1005.5 0.0
31/09:30pm N 4 7 - - - - 10 Partly cloudy - 25.4 1005.5 0.0
31/09:00pm N 5 6 - - - - 10 - - 25.3 1005.2 0.0
31/08:30pm N 5 6 - - - - 10 - - 25.4 1005.3 0.0
31/08:00pm NNW 5 6 - - - - 10 - - 25.9 1005.4 0.0
31/07:30pm N 5 9 - - - - 10 Partly cloudy - 26.3 1005.0 0.0
31/07:00pm N 7 10 - - - - 10 Partly cloudy - 26.7 1004.7 0.0
31/06:30pm NNW 7 10 - - - - 10 Partly cloudy - 27.2 1004.2 0.0
31/06:00pm NNW 9 15 - - - - 10 Mostly clear - 28.0 1003.8 0.0
31/05:30pm NNW 11 16 - - - - 10 - - 28.8 1003.4 0.0
31/05:00pm NNW 9 15 - - - - 10 - - 29.1 1003.1 0.0
31/04:30pm NNW 11 18 - - - - 10 - - 28.7 1003.1 0.0
31/04:00pm NNW 10 16 - - - - 10 - - 29.1 1003.3 0.0
31/03:30pm NNW 11 19 - - - - 10 - - 30.2 1003.3 0.0
31/03:00pm NNW 13 20 - - - - 10 Partly cloudy - 29.6 1003.9 0.0
31/02:30pm NW 12 16 - - - - 10 - - 30.9 1004.0 0.0
31/02:00pm NNW 10 18 - - - - 10 Partly cloudy - 30.7 1004.4 0.0
31/01:30pm NNW 10 16 - - - - 10 Partly cloudy - 29.6 1004.8 0.0
31/01:00pm NW 11 17 - - - - 10 Partly cloudy - 30.8 1005.0 0.0
31/12:30pm NNW 9 18 - - - - 10 Partly cloudy - 31.0 1005.3 0.0
31/12:00pm NNW 9 16 - - - - 10 Mostly clear - 29.7 1005.6 0.0
31/11:30am NNW 10 16 - - - - 10 Partly cloudy - 30.3 1005.8 0.0
31/11:00am NW 9 14 - - - - 10 Partly cloudy - 28.7 1006.3 0.0
31/10:30am NW 10 19 - - - - 10 Partly cloudy - 28.8 1006.7 0.0
31/10:00am NW 8 13 - - - - 10 Partly cloudy - 28.9 1007.2 0.0
31/09:30am NW 10 17 - - - - 10 Partly cloudy - 28.0 1007.3 0.0
31/09:00am NW 9 12 - - - - 10 Partly cloudy - 28.0 1007.4 0.0
31/08:30am NW 8 12 - - - - 10 Partly cloudy - 27.7 1007.5 0.0
31/08:00am NW 9 16 - - - - 10 - - 28.0 1007.6 0.0
31/07:30am NW 5 9 - - - - 10 - - 26.8 1007.9 0.0
31/07:00am N 1 3 - - - - 10 - - 24.0 1007.9 0.0
31/06:30am CALM 0 0 - - - - 10 - - 22.1 1007.9 0.0
31/06:00am CALM 0 0 - - - - 10 Mostly clear - 20.9 1007.8 0.0
31/05:30am CALM 0 0 - - - - 10 - - 20.9 1007.5 0.0
31/05:00am CALM 0 0 - - - - 10 Partly cloudy - 20.9 1007.2 0.0
31/04:30am CALM 0 0 - - - - 10 Partly cloudy - 20.8 1007.1 0.0
31/04:00am CALM 0 0 - - - - 10 Partly cloudy - 20.7 1007.1 0.0
31/03:30am CALM 0 0 - - - - 10 Partly cloudy - 20.8 1007.1 0.0
31/03:00am CALM 0 0 - - - - 10 - - 20.9 1007.2 0.0
31/02:30am CALM 0 0 - - - - 10 - - 21.0 1007.5 0.0
31/02:00am CALM 0 0 - - - - 10 - - 21.0 1007.8 0.0
31/01:30am CALM 0 0 - - - - 10 - - 21.5 1008.1 0.0
31/01:00am CALM 0 0 - - - - 10 - - 21.3 1008.4 0.0
31/12:30am CALM 0 0 - - - - 10 - - 21.6 1008.8 0.0
31/12:00am CALM 0 0 - - - - 10 - - 21.7 1009.1 0.0

Other formats

Comma delimited format used in spreadsheet applications
http://www.bom.gov.au/fwo/IDQ60701/IDQ60701.94370.axf

JavaScript Object Notation format (JSON) in row-major order
http://www.bom.gov.au/fwo/IDQ60701/IDQ60701.94370.json

Data quality

Most of these data are generated automatically and are frequently updated. Quality checks on data are not normally performed. It is possible for incorrect values to appear. Refer to information at About Latest Weather Observations and please check the disclaimer before using these data.